sensor_id;sensor_type;location;lat;lon;timestamp;P1;durP1;ratioP1;P2;durP2;ratioP2
45940;SDS011;31858;46.008;8.978;2024-02-28T00:09:13;2.10;;;0.75;;
45940;SDS011;31858;46.008;8.978;2024-02-28T00:19:14;0.60;;;0.60;;
45940;SDS011;31858;46.008;8.978;2024-02-28T00:29:18;1.10;;;0.90;;
45940;SDS011;31858;46.008;8.978;2024-02-28T00:39:20;0.77;;;0.77;;
45940;SDS011;31858;46.008;8.978;2024-02-28T00:49:23;1.35;;;1.00;;
45940;SDS011;31858;46.008;8.978;2024-02-28T00:59:24;1.92;;;1.80;;
45940;SDS011;31858;46.008;8.978;2024-02-28T01:09:27;0.80;;;0.80;;
45940;SDS011;31858;46.008;8.978;2024-02-28T01:19:29;2.55;;;2.15;;
45940;SDS011;31858;46.008;8.978;2024-02-28T01:29:32;2.70;;;1.60;;
45940;SDS011;31858;46.008;8.978;2024-02-28T01:39:34;2.22;;;2.00;;
45940;SDS011;31858;46.008;8.978;2024-02-28T01:49:37;1.92;;;1.83;;
45940;SDS011;31858;46.008;8.978;2024-02-28T01:59:39;5.40;;;0.70;;
45940;SDS011;31858;46.008;8.978;2024-02-28T02:09:43;2.83;;;1.20;;
45940;SDS011;31858;46.008;8.978;2024-02-28T02:19:45;1.20;;;0.70;;
45940;SDS011;31858;46.008;8.978;2024-02-28T02:29:48;2.22;;;0.57;;
45940;SDS011;31858;46.008;8.978;2024-02-28T02:39:49;1.90;;;1.80;;
45940;SDS011;31858;46.008;8.978;2024-02-28T02:49:53;0.30;;;0.30;;
45940;SDS011;31858;46.008;8.978;2024-02-28T02:59:55;1.40;;;1.10;;
45940;SDS011;31858;46.008;8.978;2024-02-28T03:09:58;1.08;;;1.08;;
45940;SDS011;31858;46.008;8.978;2024-02-28T03:20:00;2.45;;;0.32;;
45940;SDS011;31858;46.008;8.978;2024-02-28T03:30:03;0.20;;;0.20;;
45940;SDS011;31858;46.008;8.978;2024-02-28T03:40:06;1.13;;;0.30;;
45940;SDS011;31858;46.008;8.978;2024-02-28T03:50:10;0.45;;;0.30;;
45940;SDS011;31858;46.008;8.978;2024-02-28T04:00:12;0.65;;;0.65;;
45940;SDS011;31858;46.008;8.978;2024-02-28T04:10:17;1.02;;;0.90;;
45940;SDS011;31858;46.008;8.978;2024-02-28T04:20:18;0.80;;;0.80;;
45940;SDS011;31858;46.008;8.978;2024-02-28T04:30:21;1.55;;;0.60;;
45940;SDS011;31858;46.008;8.978;2024-02-28T04:40:23;0.60;;;0.60;;
45940;SDS011;31858;46.008;8.978;2024-02-28T04:50:26;0.52;;;0.43;;
45940;SDS011;31858;46.008;8.978;2024-02-28T05:00:27;1.38;;;1.27;;
45940;SDS011;31858;46.008;8.978;2024-02-28T05:10:30;0.88;;;0.88;;
45940;SDS011;31858;46.008;8.978;2024-02-28T05:20:34;1.30;;;1.20;;
45940;SDS011;31858;46.008;8.978;2024-02-28T05:30:37;3.20;;;0.77;;
45940;SDS011;31858;46.008;8.978;2024-02-28T05:40:38;1.25;;;1.15;;
45940;SDS011;31858;46.008;8.978;2024-02-28T05:50:43;2.33;;;0.70;;
45940;SDS011;31858;46.008;8.978;2024-02-28T06:00:45;2.22;;;0.70;;
45940;SDS011;31858;46.008;8.978;2024-02-28T06:10:49;1.60;;;0.70;;
45940;SDS011;31858;46.008;8.978;2024-02-28T06:20:52;0.55;;;0.50;;
45940;SDS011;31858;46.008;8.978;2024-02-28T06:30:56;3.60;;;1.23;;
45940;SDS011;31858;46.008;8.978;2024-02-28T06:40:57;1.40;;;0.40;;
45940;SDS011;31858;46.008;8.978;2024-02-28T06:51:00;1.15;;;0.28;;
45940;SDS011;31858;46.008;8.978;2024-02-28T07:01:02;0.55;;;0.30;;
45940;SDS011;31858;46.008;8.978;2024-02-28T07:11:05;4.68;;;2.25;;
45940;SDS011;31858;46.008;8.978;2024-02-28T07:21:14;1.40;;;0.50;;
45940;SDS011;31858;46.008;8.978;2024-02-28T07:31:17;0.88;;;0.55;;
45940;SDS011;31858;46.008;8.978;2024-02-28T07:41:19;0.50;;;0.32;;
45940;SDS011;31858;46.008;8.978;2024-02-28T07:51:22;1.88;;;0.50;;
45940;SDS011;31858;46.008;8.978;2024-02-28T08:01:24;4.82;;;0.80;;
45940;SDS011;31858;46.008;8.978;2024-02-28T08:11:26;0.50;;;0.50;;
45940;SDS011;31858;46.008;8.978;2024-02-28T08:21:28;1.38;;;0.85;;
45940;SDS011;31858;46.008;8.978;2024-02-28T08:31:31;1.70;;;1.38;;
45940;SDS011;31858;46.008;8.978;2024-02-28T08:41:33;8.25;;;1.65;;
45940;SDS011;31858;46.008;8.978;2024-02-28T08:51:36;5.10;;;2.83;;
45940;SDS011;31858;46.008;8.978;2024-02-28T09:01:38;2.95;;;1.85;;
45940;SDS011;31858;46.008;8.978;2024-02-28T09:11:42;0.73;;;0.50;;
45940;SDS011;31858;46.008;8.978;2024-02-28T09:21:44;0.93;;;0.55;;
45940;SDS011;31858;46.008;8.978;2024-02-28T09:31:48;0.70;;;0.70;;
45940;SDS011;31858;46.008;8.978;2024-02-28T09:41:50;2.05;;;1.75;;
45940;SDS011;31858;46.008;8.978;2024-02-28T09:51:53;4.43;;;4.00;;
45940;SDS011;31858;46.008;8.978;2024-02-28T10:01:57;3.30;;;3.00;;
45940;SDS011;31858;46.008;8.978;2024-02-28T10:12:03;4.35;;;3.95;;
45940;SDS011;31858;46.008;8.978;2024-02-28T10:22:06;6.32;;;5.45;;
45940;SDS011;31858;46.008;8.978;2024-02-28T10:32:09;5.93;;;5.43;;
45940;SDS011;31858;46.008;8.978;2024-02-28T10:42:11;2.47;;;2.28;;
45940;SDS011;31858;46.008;8.978;2024-02-28T10:52:17;7.85;;;6.03;;
45940;SDS011;31858;46.008;8.978;2024-02-28T11:02:22;7.45;;;6.03;;
45940;SDS011;31858;46.008;8.978;2024-02-28T11:12:28;7.82;;;5.30;;
45940;SDS011;31858;46.008;8.978;2024-02-28T11:22:30;8.27;;;6.10;;
45940;SDS011;31858;46.008;8.978;2024-02-28T11:32:35;2.75;;;2.55;;
45940;SDS011;31858;46.008;8.978;2024-02-28T11:42:37;4.03;;;3.42;;
45940;SDS011;31858;46.008;8.978;2024-02-28T11:52:40;2.50;;;2.30;;
45940;SDS011;31858;46.008;8.978;2024-02-28T12:02:42;6.30;;;2.90;;
45940;SDS011;31858;46.008;8.978;2024-02-28T12:12:45;3.55;;;1.73;;
45940;SDS011;31858;46.008;8.978;2024-02-28T12:22:48;5.40;;;1.90;;
45940;SDS011;31858;46.008;8.978;2024-02-28T12:32:51;1.50;;;1.40;;
45940;SDS011;31858;46.008;8.978;2024-02-28T12:42:53;1.70;;;1.52;;
45940;SDS011;31858;46.008;8.978;2024-02-28T12:52:56;1.60;;;1.48;;
45940;SDS011;31858;46.008;8.978;2024-02-28T13:02:57;1.50;;;1.40;;
45940;SDS011;31858;46.008;8.978;2024-02-28T13:13:00;3.63;;;1.30;;
45940;SDS011;31858;46.008;8.978;2024-02-28T13:23:02;1.70;;;1.10;;
45940;SDS011;31858;46.008;8.978;2024-02-28T13:33:05;1.83;;;0.65;;
45940;SDS011;31858;46.008;8.978;2024-02-28T13:43:08;1.92;;;0.85;;
45940;SDS011;31858;46.008;8.978;2024-02-28T13:53:11;0.85;;;0.63;;
45940;SDS011;31858;46.008;8.978;2024-02-28T14:03:13;1.95;;;0.60;;
45940;SDS011;31858;46.008;8.978;2024-02-28T14:13:16;0.85;;;0.63;;
45940;SDS011;31858;46.008;8.978;2024-02-28T14:23:18;3.25;;;0.70;;
45940;SDS011;31858;46.008;8.978;2024-02-28T14:33:22;1.15;;;0.50;;
45940;SDS011;31858;46.008;8.978;2024-02-28T14:43:24;1.95;;;0.63;;
45940;SDS011;31858;46.008;8.978;2024-02-28T14:53:28;0.30;;;0.30;;
45940;SDS011;31858;46.008;8.978;2024-02-28T15:03:30;1.23;;;0.45;;
45940;SDS011;31858;46.008;8.978;2024-02-28T15:13:33;0.73;;;0.40;;
45940;SDS011;31858;46.008;8.978;2024-02-28T15:23:34;0.30;;;0.30;;
45940;SDS011;31858;46.008;8.978;2024-02-28T15:33:37;1.08;;;0.55;;
45940;SDS011;31858;46.008;8.978;2024-02-28T15:43:39;0.73;;;0.55;;
45940;SDS011;31858;46.008;8.978;2024-02-28T15:53:42;0.90;;;0.70;;
45940;SDS011;31858;46.008;8.978;2024-02-28T16:03:44;0.80;;;0.75;;
45940;SDS011;31858;46.008;8.978;2024-02-28T16:13:47;0.90;;;0.43;;
45940;SDS011;31858;46.008;8.978;2024-02-28T16:23:49;1.00;;;0.55;;
45940;SDS011;31858;46.008;8.978;2024-02-28T16:33:52;1.00;;;0.77;;
45940;SDS011;31858;46.008;8.978;2024-02-28T16:43:53;0.85;;;0.77;;
45940;SDS011;31858;46.008;8.978;2024-02-28T16:53:59;2.80;;;1.08;;
45940;SDS011;31858;46.008;8.978;2024-02-28T17:04:01;4.35;;;1.17;;
45940;SDS011;31858;46.008;8.978;2024-02-28T17:14:04;1.25;;;1.08;;
45940;SDS011;31858;46.008;8.978;2024-02-28T17:24:06;2.70;;;1.00;;
45940;SDS011;31858;46.008;8.978;2024-02-28T17:34:09;1.88;;;1.45;;
45940;SDS011;31858;46.008;8.978;2024-02-28T17:44:11;6.38;;;2.10;;
45940;SDS011;31858;46.008;8.978;2024-02-28T17:54:14;3.70;;;2.30;;
45940;SDS011;31858;46.008;8.978;2024-02-28T18:04:16;5.30;;;3.00;;
45940;SDS011;31858;46.008;8.978;2024-02-28T18:14:19;7.00;;;4.40;;
45940;SDS011;31858;46.008;8.978;2024-02-28T18:24:22;6.13;;;5.10;;
45940;SDS011;31858;46.008;8.978;2024-02-28T18:34:25;11.40;;;5.55;;
45940;SDS011;31858;46.008;8.978;2024-02-28T18:44:27;10.70;;;6.05;;
45940;SDS011;31858;46.008;8.978;2024-02-28T18:54:30;8.00;;;7.20;;
45940;SDS011;31858;46.008;8.978;2024-02-28T19:04:31;8.48;;;7.43;;
45940;SDS011;31858;46.008;8.978;2024-02-28T19:14:36;7.57;;;6.85;;
45940;SDS011;31858;46.008;8.978;2024-02-28T19:24:38;10.18;;;7.82;;
45940;SDS011;31858;46.008;8.978;2024-02-28T19:34:41;8.32;;;7.47;;
45940;SDS011;31858;46.008;8.978;2024-02-28T19:44:43;9.90;;;6.88;;
45940;SDS011;31858;46.008;8.978;2024-02-28T19:54:47;7.43;;;6.25;;
45940;SDS011;31858;46.008;8.978;2024-02-28T20:04:48;8.68;;;6.07;;
45940;SDS011;31858;46.008;8.978;2024-02-28T20:14:51;9.30;;;6.20;;
45940;SDS011;31858;46.008;8.978;2024-02-28T20:24:56;7.32;;;6.18;;
45940;SDS011;31858;46.008;8.978;2024-02-28T20:34:59;7.70;;;5.93;;
45940;SDS011;31858;46.008;8.978;2024-02-28T20:45:01;7.85;;;6.25;;
45940;SDS011;31858;46.008;8.978;2024-02-28T20:55:06;11.77;;;6.80;;
45940;SDS011;31858;46.008;8.978;2024-02-28T21:05:08;9.80;;;6.30;;
45940;SDS011;31858;46.008;8.978;2024-02-28T21:15:12;8.98;;;5.90;;
45940;SDS011;31858;46.008;8.978;2024-02-28T21:25:14;8.80;;;5.88;;
45940;SDS011;31858;46.008;8.978;2024-02-28T21:35:17;9.40;;;7.90;;
45940;SDS011;31858;46.008;8.978;2024-02-28T21:45:19;10.77;;;8.55;;
45940;SDS011;31858;46.008;8.978;2024-02-28T21:55:22;10.25;;;8.27;;
45940;SDS011;31858;46.008;8.978;2024-02-28T22:05:24;10.25;;;7.88;;
45940;SDS011;31858;46.008;8.978;2024-02-28T22:15:27;10.25;;;9.15;;
45940;SDS011;31858;46.008;8.978;2024-02-28T22:25:28;8.38;;;7.07;;
45940;SDS011;31858;46.008;8.978;2024-02-28T22:35:31;9.35;;;6.57;;
45940;SDS011;31858;46.008;8.978;2024-02-28T22:45:33;8.80;;;4.70;;
45940;SDS011;31858;46.008;8.978;2024-02-28T22:55:36;10.52;;;7.57;;
45940;SDS011;31858;46.008;8.978;2024-02-28T23:05:38;11.50;;;7.57;;
45940;SDS011;31858;46.008;8.978;2024-02-28T23:15:41;10.10;;;6.97;;
45940;SDS011;31858;46.008;8.978;2024-02-28T23:25:43;9.70;;;8.68;;
45940;SDS011;31858;46.008;8.978;2024-02-28T23:35:46;13.50;;;7.43;;
45940;SDS011;31858;46.008;8.978;2024-02-28T23:45:47;10.20;;;5.93;;
45940;SDS011;31858;46.008;8.978;2024-02-28T23:55:50;9.35;;;8.45;;
